createdAt,value
2022-11-24T00:01:04.826Z,100650.69
2022-11-24T00:04:27.006Z,100650.69
2022-11-24T00:07:50.320Z,100649.94
2022-11-24T00:11:13.857Z,100649.00
2022-11-24T00:14:36.016Z,100655.19
2022-11-24T00:17:58.918Z,100650.88
2022-11-24T00:21:21.644Z,100657.00
2022-11-24T00:24:44.869Z,100652.66
2022-11-24T00:28:06.402Z,100640.31
2022-11-24T00:31:29.992Z,100644.66
2022-11-24T00:34:51.409Z,100643.91
2022-11-24T00:38:13.087Z,100643.91
2022-11-24T00:41:36.726Z,100656.13
2022-11-24T00:44:58.687Z,100655.38
2022-11-24T00:48:20.529Z,100665.16
2022-11-24T00:51:42.477Z,100653.78
2022-11-24T00:55:04.054Z,100661.75
2022-11-24T00:58:27.238Z,100660.94
2022-11-24T01:01:48.952Z,100656.66
2022-11-24T01:05:11.123Z,100667.97
2022-11-24T01:08:32.728Z,100659.22
2022-11-24T01:12:02.909Z,100659.13
2022-11-24T01:15:26.024Z,100658.28
2022-11-24T01:18:47.689Z,100667.03
2022-11-24T01:22:09.742Z,100656.50
2022-11-24T01:25:31.627Z,100659.13
2022-11-24T01:28:54.676Z,100665.34
2022-11-24T01:32:17.523Z,100668.91
2022-11-24T01:35:39.449Z,100655.84
2022-11-24T01:39:01.305Z,100658.53
2022-11-24T01:42:23.430Z,100654.16
2022-11-24T01:45:46.361Z,100657.72
2022-11-24T01:49:15.583Z,100649.81
2022-11-24T01:52:42.313Z,100645.47
2022-11-24T01:56:05.467Z,100651.59
2022-11-24T01:59:27.769Z,100667.56
2022-11-24T02:02:49.838Z,100667.63
2022-11-24T02:06:14.497Z,100672.16
2022-11-24T02:09:42.988Z,100670.56
2022-11-24T02:13:05.618Z,100672.25
2022-11-24T02:16:27.929Z,100678.44
2022-11-24T02:19:55.917Z,100666.22
2022-11-24T02:23:24.820Z,100665.34
2022-11-24T02:26:49.576Z,100675.81
2022-11-24T02:30:12.002Z,100680.31
2022-11-24T02:33:34.646Z,100691.69
2022-11-24T02:36:56.250Z,100700.47
2022-11-24T02:40:25.084Z,100700.47
2022-11-24T02:43:52.906Z,100694.44
2022-11-24T02:47:15.141Z,100699.75
2022-11-24T02:50:37.015Z,100692.81
2022-11-24T02:53:58.772Z,100691.03
2022-11-24T02:57:20.527Z,100690.16
2022-11-24T03:00:43.825Z,100683.13
2022-11-24T03:04:05.735Z,100679.47
2022-11-24T03:07:27.435Z,100696.13
2022-11-24T03:10:49.325Z,100718.13
2022-11-24T03:14:11.159Z,100721.59
2022-11-24T03:17:34.319Z,100707.84
2022-11-24T03:21:00.829Z,100717.53
2022-11-24T03:24:22.821Z,100711.41
2022-11-24T03:27:44.487Z,100716.78
2022-11-24T03:31:06.930Z,100704.63
2022-11-24T03:34:29.897Z,100711.59
2022-11-24T03:37:51.387Z,100705.44
2022-11-24T03:41:13.309Z,100706.25
2022-11-24T03:44:35.499Z,100720.31
2022-11-24T03:47:57.311Z,100714.22
2022-11-24T03:51:20.263Z,100709.88
2022-11-24T03:54:42.369Z,100723.03
2022-11-24T03:58:04.741Z,100717.03
2022-11-24T04:01:26.385Z,100709.88
2022-11-24T04:04:50.673Z,100701.88
2022-11-24T04:08:14.121Z,100710.56
2022-11-24T04:11:53.365Z,100713.09
2022-11-24T04:15:16.923Z,100713.97
2022-11-24T04:18:38.886Z,100712.09
2022-11-24T04:22:01.032Z,100713.78
2022-11-24T04:25:24.334Z,100725.25
2022-11-24T04:28:45.795Z,100742.00
2022-11-24T04:32:08.821Z,100742.00
2022-11-24T04:35:30.656Z,100748.97
2022-11-24T04:39:23.768Z,100756.09
2022-11-24T04:42:36.846Z,100761.53
2022-11-24T04:46:01.033Z,100763.38
2022-11-24T04:49:22.666Z,100759.91
2022-11-24T04:52:44.373Z,100760.84
2022-11-24T04:56:06.754Z,100773.06
2022-11-24T04:59:29.892Z,100770.44
2022-11-24T05:02:51.673Z,100772.19
2022-11-24T05:06:13.672Z,100778.41
2022-11-24T05:09:59.634Z,100776.69
2022-11-24T05:13:21.891Z,100794.19
2022-11-24T05:16:44.935Z,100797.88
2022-11-24T05:20:08.259Z,100797.09
2022-11-24T05:23:29.950Z,100786.63
2022-11-24T05:26:51.907Z,100796.06
2022-11-24T05:30:14.835Z,100784.59
2022-11-24T05:33:38.418Z,100795.13
2022-11-24T05:37:03.118Z,100797.69
2022-11-24T05:40:25.570Z,100801.25
2022-11-24T05:43:47.450Z,100810.00
2022-11-24T05:47:09.331Z,100798.53
2022-11-24T05:50:32.582Z,100793.25
2022-11-24T05:53:54.322Z,100805.44
2022-11-24T05:57:17.688Z,100802.72
2022-11-24T06:00:39.347Z,100808.94
2022-11-24T06:04:01.186Z,100827.25
2022-11-24T06:07:24.830Z,100818.59
2022-11-24T06:10:46.406Z,100837.03
2022-11-24T06:14:11.121Z,100849.50
2022-11-24T06:17:33.252Z,100855.69
2022-11-24T06:21:10.135Z,100846.09
2022-11-24T06:24:35.262Z,100846.25
2022-11-24T06:27:57.574Z,100855.09
2022-11-24T06:31:19.425Z,100862.31
2022-11-24T06:34:41.265Z,100860.69
2022-11-24T06:38:03.116Z,100856.44
2022-11-24T06:41:26.099Z,100856.44
2022-11-24T06:44:48.296Z,100867.81
2022-11-24T06:48:10.155Z,100875.63
2022-11-24T06:51:31.572Z,100881.72
2022-11-24T06:54:53.751Z,100888.69
2022-11-24T06:58:16.878Z,100886.94
2022-11-24T07:01:38.583Z,100879.88
2022-11-24T07:05:00.167Z,100886.00
2022-11-24T07:08:22.202Z,100882.44
2022-11-24T07:11:44.150Z,100893.63
2022-11-24T07:15:09.015Z,100896.28
2022-11-24T07:18:30.914Z,100899.06
2022-11-24T07:21:52.729Z,100905.19
2022-11-24T07:25:14.665Z,100904.34
2022-11-24T07:28:37.757Z,100911.41
2022-11-24T07:32:05.525Z,100912.50
2022-11-24T07:35:28.076Z,100912.56
2022-11-24T07:38:49.839Z,100914.25
2022-11-24T07:42:11.520Z,100916.06
2022-11-24T07:45:33.302Z,100912.56
2022-11-24T07:48:56.517Z,100922.25
2022-11-24T07:52:18.317Z,100922.31
2022-11-24T07:55:40.237Z,100920.38
2022-11-24T07:59:02.676Z,100929.13
2022-11-24T08:02:24.552Z,100929.13
2022-11-24T08:09:45.409Z,100928.94
2022-11-24T08:13:07.295Z,100929.88
2022-11-24T08:16:29.323Z,100928.13
2022-11-24T08:19:51.006Z,100925.38
2022-11-24T08:23:14.530Z,100931.44
2022-11-24T08:26:36.383Z,100927.78
2022-11-24T08:29:58.547Z,100940.97
2022-11-24T08:33:20.470Z,100932.13
2022-11-24T08:36:42.573Z,100939.94
2022-11-24T08:40:06.296Z,100938.84
2022-11-24T08:43:28.081Z,100937.00
2022-11-24T08:46:50.699Z,100942.09
2022-11-24T08:50:12.346Z,100942.88
2022-11-24T08:53:34.449Z,100947.22
2022-11-24T08:56:58.195Z,100949.75
2022-11-24T09:00:23.129Z,100943.47
2022-11-24T09:03:50.831Z,100941.63
2022-11-24T09:07:13.087Z,100944.91
2022-11-24T09:10:34.991Z,100952.75
2022-11-24T09:13:58.440Z,100959.66
2022-11-24T09:17:20.273Z,100952.44
2022-11-24T09:20:42.314Z,100967.25
2022-11-24T09:24:04.490Z,100975.91
2022-11-24T09:27:26.644Z,100986.34
2022-11-24T09:30:50.242Z,100978.44
2022-11-24T09:34:15.495Z,100980.06
2022-11-24T09:37:37.504Z,100977.28
2022-11-24T09:41:21.743Z,100981.44
2022-11-24T09:45:30.394Z,100975.25
2022-11-24T09:49:04.588Z,100977.81
2022-11-24T09:52:40.620Z,100978.66
2022-11-24T09:56:16.694Z,100975.94
2022-11-24T09:59:41.031Z,100972.38
2022-11-24T10:03:02.818Z,100971.28
2022-11-24T10:06:28.267Z,100982.47
2022-11-24T10:10:01.068Z,100982.25
2022-11-24T10:13:36.417Z,100989.22
2022-11-24T10:17:03.202Z,100981.16
2022-11-24T10:20:35.576Z,100985.41
2022-11-24T10:24:16.543Z,101003.75
2022-11-24T10:27:44.100Z,101003.44
2022-11-24T10:31:22.672Z,101002.44
2022-11-24T10:34:48.771Z,100997.91
2022-11-24T10:38:25.361Z,101015.38
2022-11-24T10:41:53.626Z,101012.47
2022-11-24T10:45:16.818Z,101012.41
2022-11-24T10:48:42.977Z,101015.69
2022-11-24T10:52:09.521Z,101015.53
2022-11-24T10:55:59.018Z,101014.69
2022-11-24T10:59:37.315Z,101010.00
2022-11-24T11:03:17.010Z,101002.78
2022-11-24T11:06:38.799Z,100996.47
2022-11-24T11:10:22.104Z,100992.06
2022-11-24T11:14:03.055Z,100993.59
2022-11-24T11:17:37.653Z,100996.00
2022-11-24T11:21:02.193Z,101008.91
2022-11-24T11:24:23.919Z,101006.19
2022-11-24T11:27:45.635Z,101003.38
2022-11-24T11:31:21.803Z,101006.69
2022-11-24T11:34:46.247Z,101012.66
2022-11-24T11:38:08.887Z,101008.91
2022-11-24T11:41:34.918Z,100999.78
2022-11-24T11:45:01.786Z,101020.63
2022-11-24T11:48:36.984Z,101013.28
2022-11-24T11:52:32.720Z,101007.19
2022-11-24T11:56:14.038Z,101015.94
2022-11-24T12:00:04.458Z,101025.41
2022-11-24T12:03:51.534Z,101024.34
2022-11-24T12:07:41.893Z,101022.47
2022-11-24T12:11:09.884Z,101014.38
2022-11-24T12:14:39.456Z,101015.25
2022-11-24T12:18:40.276Z,101016.94
2022-11-24T12:22:06.138Z,101021.28
2022-11-24T12:25:33.675Z,101019.31
2022-11-24T12:29:09.422Z,101029.78
2022-11-24T12:33:01.696Z,101021.78
2022-11-24T12:36:42.506Z,101017.16
2022-11-24T12:40:12.887Z,101017.09
2022-11-24T12:43:38.144Z,101020.56
2022-11-24T12:47:10.905Z,101025.66
2022-11-24T12:50:38.003Z,101033.59
2022-11-24T12:54:04.134Z,101020.31
2022-11-24T12:57:32.061Z,101034.28
2022-11-24T13:01:14.818Z,101028.13
2022-11-24T13:04:47.716Z,101032.47
2022-11-24T13:08:09.912Z,101034.16
2022-11-24T13:11:41.583Z,101043.78
2022-11-24T13:15:36.428Z,101042.94
2022-11-24T13:19:03.614Z,101050.78
2022-11-24T13:22:27.134Z,101047.13
2022-11-24T13:26:28.725Z,101055.97
2022-11-24T13:29:51.954Z,101058.63
2022-11-24T13:33:34.916Z,101072.69
2022-11-24T13:36:58.184Z,101070.88
2022-11-24T13:40:59.790Z,101072.69
2022-11-24T13:44:26.381Z,101067.41
2022-11-24T13:47:47.990Z,101070.88
2022-11-24T13:51:21.015Z,101069.19
2022-11-24T13:54:44.159Z,101068.34
2022-11-24T13:58:38.477Z,101071.91
2022-11-24T14:02:00.149Z,101077.09
2022-11-24T14:05:28.331Z,101083.31
2022-11-24T14:08:50.444Z,101088.53
2022-11-24T14:12:17.207Z,101087.75
2022-11-24T14:15:38.913Z,101092.13
2022-11-24T14:19:11.761Z,101098.31
2022-11-24T14:22:39.278Z,101092.13
2022-11-24T14:26:00.818Z,101103.53
2022-11-24T14:29:25.472Z,101103.53
2022-11-24T14:32:55.853Z,101100.13
2022-11-24T14:36:19.172Z,101116.78
2022-11-24T14:39:42.590Z,101108.97
2022-11-24T14:43:05.104Z,101117.72
2022-11-24T14:46:28.677Z,101127.47
2022-11-24T14:49:51.783Z,101130.00
2022-11-24T14:53:21.873Z,101132.66
2022-11-24T14:56:58.351Z,101128.22
2022-11-24T15:00:27.075Z,101130.78
2022-11-24T15:04:38.991Z,101152.00
2022-11-24T15:08:03.608Z,101154.72
2022-11-24T15:11:25.522Z,101171.50
2022-11-24T15:14:52.357Z,101163.66
2022-11-24T15:18:27.244Z,101169.03
2022-11-24T15:21:50.447Z,101177.06
2022-11-24T15:25:36.522Z,101168.38
2022-11-24T15:28:58.306Z,101179.00
2022-11-24T15:32:20.318Z,101180.88
2022-11-24T15:35:42.363Z,101189.72
2022-11-24T15:39:05.607Z,101193.31
2022-11-24T15:42:27.366Z,101196.88
2022-11-24T15:45:49.437Z,101196.13
2022-11-24T15:49:11.407Z,101202.34
2022-11-24T15:52:33.363Z,101204.22
2022-11-24T15:55:57.719Z,101205.06
2022-11-24T15:59:21.155Z,101202.41
2022-11-24T16:02:43.419Z,101203.28
2022-11-24T16:06:05.715Z,101197.22
2022-11-24T16:09:28.095Z,101198.06
2022-11-24T16:12:51.360Z,101195.53
2022-11-24T16:16:14.465Z,101199.94
2022-11-24T16:19:41.596Z,101193.81
2022-11-24T16:23:04.862Z,101201.75
2022-11-24T16:26:26.486Z,101192.88
2022-11-24T16:29:49.972Z,101192.88
2022-11-24T16:33:12.094Z,101202.50
2022-11-24T16:36:34.322Z,101194.50
2022-11-24T16:39:56.476Z,101199.69
2022-11-24T16:43:18.170Z,101195.25
2022-11-24T16:46:41.482Z,101197.00
2022-11-24T16:50:03.335Z,101202.28
2022-11-24T16:53:25.177Z,101200.53
2022-11-24T16:56:47.003Z,101203.28
2022-11-24T17:00:09.897Z,101209.50
2022-11-24T17:03:37.120Z,101204.38
2022-11-24T17:06:59.051Z,101209.66
2022-11-24T17:10:21.022Z,101208.91
2022-11-24T17:13:43.575Z,101224.63
2022-11-24T17:17:05.375Z,101222.94
2022-11-24T17:20:28.632Z,101227.38
2022-11-24T17:23:54.687Z,101228.31
2022-11-24T17:27:16.186Z,101230.97
2022-11-24T17:30:38.806Z,101231.88
2022-11-24T17:34:01.555Z,101232.81
2022-11-24T17:37:24.856Z,101242.44
2022-11-24T17:40:48.700Z,101242.63
2022-11-24T17:44:12.345Z,101248.84
2022-11-24T17:47:34.128Z,101248.91
2022-11-24T17:51:03.308Z,101252.47
2022-11-24T17:58:08.523Z,101263.72
2022-11-24T18:01:31.558Z,101267.31
2022-11-24T18:04:53.111Z,101265.59
2022-11-24T18:08:15.175Z,101261.25
2022-11-24T18:11:38.614Z,101265.69
2022-11-24T18:14:59.995Z,101271.06
2022-11-24T18:18:21.997Z,101267.72
2022-11-24T18:21:45.203Z,101269.66
2022-11-24T18:25:07.776Z,101270.56
2022-11-24T18:28:31.472Z,101279.44
2022-11-24T18:31:53.034Z,101276.97
2022-11-24T18:35:14.693Z,101280.53
2022-11-24T18:38:37.670Z,101279.00
2022-11-24T18:41:59.387Z,101279.91
2022-11-24T18:45:22.442Z,101285.34
2022-11-24T18:48:44.905Z,101284.59
2022-11-24T18:52:06.517Z,101283.97
2022-11-24T18:55:28.539Z,101283.19
2022-11-24T18:58:53.757Z,101288.53
2022-11-24T19:02:16.662Z,101276.38
2022-11-24T19:05:38.288Z,101273.91
2022-11-24T19:09:01.165Z,101274.81
2022-11-24T19:12:22.995Z,101284.47
2022-11-24T19:15:44.732Z,101289.72
2022-11-24T19:19:08.685Z,101297.72
2022-11-24T19:22:30.449Z,101301.28
2022-11-24T19:25:52.343Z,101302.22
2022-11-24T19:29:15.834Z,101309.41
2022-11-24T19:32:37.506Z,101312.06
2022-11-24T19:36:05.230Z,101322.69
2022-11-24T19:39:27.149Z,101316.56
2022-11-24T19:42:48.994Z,101322.00
2022-11-24T19:46:12.839Z,101321.16
2022-11-24T19:49:34.517Z,101333.47
2022-11-24T19:52:57.566Z,101330.81
2022-11-24T19:56:21.292Z,101334.34
2022-11-24T19:59:43.362Z,101332.47
2022-11-24T20:03:05.023Z,101331.44
2022-11-24T20:06:28.166Z,101329.69
2022-11-24T20:09:51.166Z,101329.69
2022-11-24T20:13:13.253Z,101333.94
2022-11-24T20:16:36.261Z,101333.94
2022-11-24T20:19:57.866Z,101327.88
2022-11-24T20:23:19.525Z,101332.31
2022-11-24T20:26:45.419Z,101331.44
2022-11-24T20:30:08.502Z,101331.53
2022-11-24T20:33:30.388Z,101332.38
2022-11-24T20:36:52.903Z,101345.72
2022-11-24T20:40:14.470Z,101344.94
2022-11-24T20:43:37.967Z,101350.22
2022-11-24T20:47:01.315Z,101354.56
2022-11-24T20:50:23.187Z,101355.59
2022-11-24T20:53:45.454Z,101359.16
2022-11-24T20:57:07.208Z,101360.16
2022-11-24T21:00:30.423Z,101356.78
2022-11-24T21:03:54.847Z,101360.44
2022-11-24T21:07:16.918Z,101369.28
2022-11-24T21:10:38.666Z,101366.81
2022-11-24T21:14:02.038Z,101362.53
2022-11-24T21:17:25.103Z,101353.06
2022-11-24T21:20:47.088Z,101365.53
2022-11-24T21:24:12.359Z,101363.97
2022-11-24T21:27:33.947Z,101371.97
2022-11-24T21:30:55.913Z,101368.41
2022-11-24T21:34:19.553Z,101372.75
2022-11-24T21:37:41.519Z,101369.25
2022-11-24T21:41:04.668Z,101379.78
2022-11-24T21:44:26.366Z,101376.31
2022-11-24T21:47:48.817Z,101381.63
2022-11-24T21:51:15.628Z,101385.19
2022-11-24T21:54:38.112Z,101381.72
2022-11-24T21:58:00.009Z,101396.75
2022-11-24T22:01:23.941Z,101392.47
2022-11-24T22:04:45.875Z,101397.84
2022-11-24T22:08:09.180Z,101400.53
2022-11-24T22:11:31.214Z,101412.00
2022-11-24T22:14:53.209Z,101414.59
2022-11-24T22:18:14.727Z,101404.72
2022-11-24T22:21:36.605Z,101406.53
2022-11-24T22:25:00.366Z,101409.22
2022-11-24T22:28:22.023Z,101410.00
2022-11-24T22:31:44.086Z,101413.50
2022-11-24T22:35:06.863Z,101409.84
2022-11-24T22:38:29.738Z,101411.66
2022-11-24T22:41:54.665Z,101420.41
2022-11-24T22:45:16.408Z,101417.06
2022-11-24T22:48:38.699Z,101418.97
2022-11-24T22:52:00.759Z,101422.69
2022-11-24T22:55:22.659Z,101421.97
2022-11-24T22:58:45.929Z,101429.97
2022-11-24T23:02:07.561Z,101423.75
2022-11-24T23:05:29.191Z,101429.88
2022-11-24T23:08:51.698Z,101423.75
2022-11-24T23:12:13.905Z,101428.88
2022-11-24T23:15:37.150Z,101422.69
2022-11-24T23:18:59.127Z,101418.19
2022-11-24T23:22:20.815Z,101418.19
2022-11-24T23:25:42.228Z,101418.97
2022-11-24T23:29:05.178Z,101416.28
2022-11-24T23:32:28.367Z,101418.97
2022-11-24T23:35:50.529Z,101419.84
2022-11-24T23:39:14.237Z,101416.34
2022-11-24T23:42:36.266Z,101421.31
2022-11-24T23:46:03.902Z,101430.00
2022-11-24T23:49:27.150Z,101421.28
2022-11-24T23:52:49.094Z,101418.69
2022-11-24T23:56:14.179Z,101421.41
2022-11-24T23:59:36.142Z,101414.34
